sensor_id;sensor_type;location;lat;lon;timestamp;pressure;altitude;pressure_sealevel;temperature;humidity
51849;BME280;38952;51.090;-1.832;2023-04-16T00:01:19;101281.75;;;8.29;74.18
51849;BME280;38952;51.090;-1.832;2023-04-16T00:03:45;101285.06;;;8.31;74.61
51849;BME280;38952;51.090;-1.832;2023-04-16T00:06:11;101286.28;;;8.35;74.43
51849;BME280;38952;51.090;-1.832;2023-04-16T00:08:36;101286.28;;;8.35;74.42
51849;BME280;38952;51.090;-1.832;2023-04-16T00:11:04;101282.25;;;8.37;74.23
51849;BME280;38952;51.090;-1.832;2023-04-16T00:13:30;101296.19;;;8.48;74.30
51849;BME280;38952;51.090;-1.832;2023-04-16T00:15:55;101277.78;;;8.43;74.35
51849;BME280;38952;51.090;-1.832;2023-04-16T00:18:23;101274.03;;;8.44;74.21
51849;BME280;38952;51.090;-1.832;2023-04-16T00:20:48;101277.34;;;8.46;74.49
51849;BME280;38952;51.090;-1.832;2023-04-16T00:23:15;101271.91;;;8.46;74.29
51849;BME280;38952;51.090;-1.832;2023-04-16T00:25:43;101299.94;;;8.65;74.57
51849;BME280;38952;51.090;-1.832;2023-04-16T00:28:18;101267.81;;;8.37;74.02
51849;BME280;38952;51.090;-1.832;2023-04-16T00:30:51;101289.47;;;8.50;74.08
51849;BME280;38952;51.090;-1.832;2023-04-16T00:33:20;101303.69;;;8.52;74.54
51849;BME280;38952;51.090;-1.832;2023-04-16T00:35:46;101295.38;;;8.47;75.05
51849;BME280;38952;51.090;-1.832;2023-04-16T00:38:12;101294.97;;;8.44;75.36
51849;BME280;38952;51.090;-1.832;2023-04-16T00:40:38;101297.03;;;8.48;75.32
51849;BME280;38952;51.090;-1.832;2023-04-16T00:43:03;101280.00;;;8.34;75.05
51849;BME280;38952;51.090;-1.832;2023-04-16T00:45:31;101278.94;;;8.35;74.95
51849;BME280;38952;51.090;-1.832;2023-04-16T00:47:57;101300.38;;;8.50;75.05
51849;BME280;38952;51.090;-1.832;2023-04-16T00:50:23;101290.38;;;8.44;75.13
51849;BME280;38952;51.090;-1.832;2023-04-16T00:52:49;101288.75;;;8.36;75.41
51849;BME280;38952;51.090;-1.832;2023-04-16T00:55:15;101282.94;;;8.33;75.61
51849;BME280;38952;51.090;-1.832;2023-04-16T00:57:50;101295.19;;;8.42;75.28
51849;BME280;38952;51.090;-1.832;2023-04-16T01:00:15;101291.72;;;8.35;75.63
51849;BME280;38952;51.090;-1.832;2023-04-16T01:02:41;101301.28;;;8.44;75.75
51849;BME280;38952;51.090;-1.832;2023-04-16T01:05:14;101291.03;;;8.39;75.43
51849;BME280;38952;51.090;-1.832;2023-04-16T01:07:39;101258.84;;;8.18;75.55
51849;BME280;38952;51.090;-1.832;2023-04-16T01:10:05;101272.13;;;8.26;75.41
51849;BME280;38952;51.090;-1.832;2023-04-16T01:12:31;101280.81;;;8.35;75.67
51849;BME280;38952;51.090;-1.832;2023-04-16T01:14:56;101284.63;;;8.34;75.43
51849;BME280;38952;51.090;-1.832;2023-04-16T01:17:27;101270.84;;;8.29;75.30
51849;BME280;38952;51.090;-1.832;2023-04-16T01:19:58;101278.56;;;8.32;75.03
51849;BME280;38952;51.090;-1.832;2023-04-16T01:22:24;101298.84;;;8.36;75.57
51849;BME280;38952;51.090;-1.832;2023-04-16T01:24:52;101275.53;;;8.21;75.57
51849;BME280;38952;51.090;-1.832;2023-04-16T01:27:17;101257.25;;;8.10;75.51
51849;BME280;38952;51.090;-1.832;2023-04-16T01:29:45;101287.44;;;8.27;75.47
51849;BME280;38952;51.090;-1.832;2023-04-16T01:32:10;101267.25;;;8.16;76.00
51849;BME280;38952;51.090;-1.832;2023-04-16T01:34:35;101284.69;;;8.27;76.27
51849;BME280;38952;51.090;-1.832;2023-04-16T01:37:02;101290.97;;;8.28;75.77
51849;BME280;38952;51.090;-1.832;2023-04-16T01:39:27;101287.66;;;8.26;75.85
51849;BME280;38952;51.090;-1.832;2023-04-16T01:41:53;101286.44;;;8.21;76.32
51849;BME280;38952;51.090;-1.832;2023-04-16T01:44:18;101290.97;;;8.28;76.43
51849;BME280;38952;51.090;-1.832;2023-04-16T01:46:44;101294.31;;;8.30;76.03
51849;BME280;38952;51.090;-1.832;2023-04-16T01:49:09;101278.44;;;8.27;76.33
51849;BME280;38952;51.090;-1.832;2023-04-16T01:51:35;101268.88;;;8.17;76.38
51849;BME280;38952;51.090;-1.832;2023-04-16T01:54:00;101262.97;;;8.20;76.33
51849;BME280;38952;51.090;-1.832;2023-04-16T01:56:28;101281.91;;;8.34;76.25
51849;BME280;38952;51.090;-1.832;2023-04-16T01:58:53;101292.09;;;8.38;75.90
51849;BME280;38952;51.090;-1.832;2023-04-16T02:01:19;101284.63;;;8.34;76.46
51849;BME280;38952;51.090;-1.832;2023-04-16T02:03:45;101266.78;;;8.19;76.54
51849;BME280;38952;51.090;-1.832;2023-04-16T02:06:13;101284.34;;;8.24;76.87
51849;BME280;38952;51.090;-1.832;2023-04-16T02:08:39;101266.41;;;8.16;76.55
51849;BME280;38952;51.090;-1.832;2023-04-16T02:11:08;101257.25;;;8.10;76.57
51849;BME280;38952;51.090;-1.832;2023-04-16T02:13:36;101263.78;;;8.09;77.26
51849;BME280;38952;51.090;-1.832;2023-04-16T02:16:02;101243.19;;;7.95;77.33
51849;BME280;38952;51.090;-1.832;2023-04-16T02:18:27;101254.09;;;7.95;77.10
51849;BME280;38952;51.090;-1.832;2023-04-16T02:20:53;101276.78;;;8.07;77.21
51849;BME280;38952;51.090;-1.832;2023-04-16T02:23:18;101261.66;;;7.93;77.27
51849;BME280;38952;51.090;-1.832;2023-04-16T02:25:45;101264.13;;;7.94;77.76
51849;BME280;38952;51.090;-1.832;2023-04-16T02:28:17;101272.53;;;7.93;77.35
51849;BME280;38952;51.090;-1.832;2023-04-16T02:30:50;101240.47;;;7.76;77.70
51849;BME280;38952;51.090;-1.832;2023-04-16T02:33:15;101275.88;;;7.95;78.02
51849;BME280;38952;51.090;-1.832;2023-04-16T02:35:40;101261.75;;;7.86;77.41
51849;BME280;38952;51.090;-1.832;2023-04-16T02:38:07;101262.09;;;7.90;77.63
51849;BME280;38952;51.090;-1.832;2023-04-16T02:40:32;101256.66;;;7.90;77.81
51849;BME280;38952;51.090;-1.832;2023-04-16T02:43:01;101251.59;;;7.93;77.17
51849;BME280;38952;51.090;-1.832;2023-04-16T02:45:26;101265.28;;;8.05;77.24
51849;BME280;38952;51.090;-1.832;2023-04-16T02:47:52;101268.53;;;8.14;77.94
51849;BME280;38952;51.090;-1.832;2023-04-16T02:50:17;101257.25;;;8.10;77.46
51849;BME280;38952;51.090;-1.832;2023-04-16T02:52:43;101262.69;;;8.10;77.39
51849;BME280;38952;51.090;-1.832;2023-04-16T02:55:09;101261.19;;;8.14;77.01
51849;BME280;38952;51.090;-1.832;2023-04-16T02:57:35;101254.91;;;8.14;77.41
51849;BME280;38952;51.090;-1.832;2023-04-16T03:00:00;101271.53;;;8.24;77.17
51849;BME280;38952;51.090;-1.832;2023-04-16T03:02:28;101266.91;;;8.25;77.51
51849;BME280;38952;51.090;-1.832;2023-04-16T03:04:56;101265.50;;;8.22;77.67
51849;BME280;38952;51.090;-1.832;2023-04-16T03:07:24;101265.84;;;8.26;77.83
51849;BME280;38952;51.090;-1.832;2023-04-16T03:09:50;101263.81;;;8.21;77.60
51849;BME280;38952;51.090;-1.832;2023-04-16T03:12:15;101274.63;;;8.28;77.69
51849;BME280;38952;51.090;-1.832;2023-04-16T03:14:41;101266.31;;;8.23;77.65
51849;BME280;38952;51.090;-1.832;2023-04-16T03:17:06;101259.66;;;8.18;77.33
51849;BME280;38952;51.090;-1.832;2023-04-16T03:19:32;101265.69;;;8.20;78.13
51849;BME280;38952;51.090;-1.832;2023-04-16T03:21:57;101251.78;;;8.10;77.60
51849;BME280;38952;51.090;-1.832;2023-04-16T03:24:22;101260.59;;;8.12;78.04
51849;BME280;38952;51.090;-1.832;2023-04-16T03:26:48;101260.66;;;8.06;78.33
51849;BME280;38952;51.090;-1.832;2023-04-16T03:29:13;101267.78;;;8.07;78.34
51849;BME280;38952;51.090;-1.832;2023-04-16T03:31:39;101262.09;;;8.08;78.64
51849;BME280;38952;51.090;-1.832;2023-04-16T03:34:05;101247.13;;;7.99;78.43
51849;BME280;38952;51.090;-1.832;2023-04-16T03:36:30;101252.13;;;8.02;78.77
51849;BME280;38952;51.090;-1.832;2023-04-16T03:38:57;101267.78;;;8.07;78.55
51849;BME280;38952;51.090;-1.832;2023-04-16T03:41:22;101255.31;;;7.99;78.69
51849;BME280;38952;51.090;-1.832;2023-04-16T03:43:47;101271.94;;;8.09;78.81
51849;BME280;38952;51.090;-1.832;2023-04-16T03:46:15;101273.59;;;8.10;79.05
51849;BME280;38952;51.090;-1.832;2023-04-16T03:48:43;101253.75;;;8.03;78.74
51849;BME280;38952;51.090;-1.832;2023-04-16T03:51:08;101246.50;;;7.97;78.58
51849;BME280;38952;51.090;-1.832;2023-04-16T03:53:33;101252.72;;;8.04;78.84
51849;BME280;38952;51.090;-1.832;2023-04-16T03:55:59;101247.25;;;8.04;79.16
51849;BME280;38952;51.090;-1.832;2023-04-16T03:58:24;101260.66;;;8.06;79.29
51849;BME280;38952;51.090;-1.832;2023-04-16T04:00:52;101246.75;;;7.95;79.20
51849;BME280;38952;51.090;-1.832;2023-04-16T04:03:23;101250.31;;;7.96;79.35
51849;BME280;38952;51.090;-1.832;2023-04-16T04:05:50;101243.19;;;7.95;79.52
51849;BME280;38952;51.090;-1.832;2023-04-16T04:08:15;101234.88;;;7.90;79.49
51849;BME280;38952;51.090;-1.832;2023-04-16T04:10:41;101256.50;;;8.03;79.83
51849;BME280;38952;51.090;-1.832;2023-04-16T04:13:06;101268.59;;;8.07;79.96
51849;BME280;38952;51.090;-1.832;2023-04-16T04:15:32;101260.75;;;7.99;80.08
51849;BME280;38952;51.090;-1.832;2023-04-16T04:17:58;101260.06;;;8.03;80.33
51849;BME280;38952;51.090;-1.832;2023-04-16T04:20:24;101252.34;;;8.00;79.61
51849;BME280;38952;51.090;-1.832;2023-04-16T04:22:57;101262.31;;;8.07;80.12
51849;BME280;38952;51.090;-1.832;2023-04-16T04:25:24;101262.56;;;8.05;79.67
51849;BME280;38952;51.090;-1.832;2023-04-16T04:27:50;101268.13;;;8.10;80.44
51849;BME280;38952;51.090;-1.832;2023-04-16T04:30:21;101242.34;;;7.94;80.46
51849;BME280;38952;51.090;-1.832;2023-04-16T04:32:47;101261.94;;;8.03;80.27
51849;BME280;38952;51.090;-1.832;2023-04-16T04:35:12;101258.16;;;8.04;80.09
51849;BME280;38952;51.090;-1.832;2023-04-16T04:37:38;101237.00;;;7.88;80.14
51849;BME280;38952;51.090;-1.832;2023-04-16T04:40:03;101245.31;;;7.93;80.51
51849;BME280;38952;51.090;-1.832;2023-04-16T04:42:29;101249.47;;;7.95;80.54
51849;BME280;38952;51.090;-1.832;2023-04-16T04:44:54;101252.41;;;7.94;80.62
51849;BME280;38952;51.090;-1.832;2023-04-16T04:47:20;101255.00;;;7.89;80.56
51849;BME280;38952;51.090;-1.832;2023-04-16T04:49:45;101259.16;;;7.91;80.81
51849;BME280;38952;51.090;-1.832;2023-04-16T04:52:11;101265.44;;;7.92;80.48
51849;BME280;38952;51.090;-1.832;2023-04-16T04:54:36;101261.75;;;7.86;80.86
51849;BME280;38952;51.090;-1.832;2023-04-16T04:57:05;101268.88;;;7.87;80.95
51849;BME280;38952;51.090;-1.832;2023-04-16T04:59:34;101267.56;;;7.90;80.65
51849;BME280;38952;51.090;-1.832;2023-04-16T05:02:02;101252.59;;;7.80;81.08
51849;BME280;38952;51.090;-1.832;2023-04-16T05:04:28;101244.88;;;7.77;80.43
51849;BME280;38952;51.090;-1.832;2023-04-16T05:07:05;101247.59;;;7.77;80.17
51849;BME280;38952;51.090;-1.832;2023-04-16T05:09:31;101263.78;;;7.91;81.19
51849;BME280;38952;51.090;-1.832;2023-04-16T05:11:57;101266.78;;;7.82;80.91
51849;BME280;38952;51.090;-1.832;2023-04-16T05:14:22;101268.47;;;7.83;81.03
51849;BME280;38952;51.090;-1.832;2023-04-16T05:16:48;101274.91;;;7.89;81.36
51849;BME280;38952;51.090;-1.832;2023-04-16T05:19:15;101283.66;;;7.91;81.08
51849;BME280;38952;51.090;-1.832;2023-04-16T05:21:43;101266.19;;;7.80;81.42
51849;BME280;38952;51.090;-1.832;2023-04-16T05:24:11;101274.97;;;7.82;81.36
51849;BME280;38952;51.090;-1.832;2023-04-16T05:26:36;101271.78;;;7.85;81.43
51849;BME280;38952;51.090;-1.832;2023-04-16T05:29:02;101275.72;;;7.90;81.20
51849;BME280;38952;51.090;-1.832;2023-04-16T05:31:27;101260.47;;;7.89;81.32
51849;BME280;38952;51.090;-1.832;2023-04-16T05:33:55;101258.31;;;7.91;81.22
51849;BME280;38952;51.090;-1.832;2023-04-16T05:36:20;101257.06;;;7.93;81.23
51849;BME280;38952;51.090;-1.832;2023-04-16T05:38:45;101266.34;;;8.04;81.35
51849;BME280;38952;51.090;-1.832;2023-04-16T05:41:11;101269.81;;;8.11;81.11
51849;BME280;38952;51.090;-1.832;2023-04-16T05:43:36;101271.03;;;8.15;81.11
51849;BME280;38952;51.090;-1.832;2023-04-16T05:46:02;101275.53;;;8.21;80.58
51849;BME280;38952;51.090;-1.832;2023-04-16T05:48:27;101273.88;;;8.20;80.34
51849;BME280;38952;51.090;-1.832;2023-04-16T05:50:53;101275.00;;;8.31;80.26
51849;BME280;38952;51.090;-1.832;2023-04-16T05:53:18;101291.03;;;8.39;80.27
51849;BME280;38952;51.090;-1.832;2023-04-16T05:55:44;101284.16;;;8.37;80.19
51849;BME280;38952;51.090;-1.832;2023-04-16T05:58:10;101269.56;;;8.31;80.03
51849;BME280;38952;51.090;-1.832;2023-04-16T06:00:36;101291.72;;;8.35;79.74
51849;BME280;38952;51.090;-1.832;2023-04-16T06:03:04;101269.03;;;8.23;80.16
51849;BME280;38952;51.090;-1.832;2023-04-16T06:05:32;101271.66;;;8.29;80.38
51849;BME280;38952;51.090;-1.832;2023-04-16T06:08:00;101257.81;;;8.31;79.78
51849;BME280;38952;51.090;-1.832;2023-04-16T06:10:26;101265.69;;;8.39;79.48
51849;BME280;38952;51.090;-1.832;2023-04-16T06:13:01;101269.59;;;8.43;79.30
51849;BME280;38952;51.090;-1.832;2023-04-16T06:15:29;101269.59;;;8.43;79.10
51849;BME280;38952;51.090;-1.832;2023-04-16T06:17:54;101271.44;;;8.49;78.74
51849;BME280;38952;51.090;-1.832;2023-04-16T06:20:20;101278.44;;;8.57;78.65
51849;BME280;38952;51.090;-1.832;2023-04-16T06:26:19;101295.00;;;8.74;78.18
51849;BME280;38952;51.090;-1.832;2023-04-16T06:28:45;101264.59;;;8.59;78.05
51849;BME280;38952;51.090;-1.832;2023-04-16T06:31:23;101275.78;;;8.69;77.53
51849;BME280;38952;51.090;-1.832;2023-04-16T06:34:05;101266.16;;;8.66;77.62
51849;BME280;38952;51.090;-1.832;2023-04-16T06:37:01;101276.97;;;8.73;77.39
51849;BME280;38952;51.090;-1.832;2023-04-16T06:39:46;101305.47;;;9.01;77.31
51849;BME280;38952;51.090;-1.832;2023-04-16T06:42:14;101292.47;;;9.03;77.27
51849;BME280;38952;51.090;-1.832;2023-04-16T06:44:45;101263.72;;;8.88;76.90
51849;BME280;38952;51.090;-1.832;2023-04-16T06:53:44;101325.00;;;9.40;76.11
51849;BME280;38952;51.090;-1.832;2023-04-16T06:56:15;101302.94;;;9.30;76.41
51849;BME280;38952;51.090;-1.832;2023-04-16T07:01:35;101302.69;;;9.43;75.89
51849;BME280;38952;51.090;-1.832;2023-04-16T07:04:04;101288.22;;;9.54;75.81
51849;BME280;38952;51.090;-1.832;2023-04-16T07:06:31;101300.91;;;9.72;75.46
51849;BME280;38952;51.090;-1.832;2023-04-16T07:12:05;101275.00;;;9.87;74.88
51849;BME280;38952;51.090;-1.832;2023-04-16T07:14:41;101305.84;;;10.11;74.81
51849;BME280;38952;51.090;-1.832;2023-04-16T07:17:15;101327.69;;;10.35;73.99
51849;BME280;38952;51.090;-1.832;2023-04-16T07:19:54;101282.44;;;10.15;74.40
51849;BME280;38952;51.090;-1.832;2023-04-16T07:22:45;101292.00;;;10.41;73.94
51849;BME280;38952;51.090;-1.832;2023-04-16T07:25:13;101319.25;;;10.65;73.75
51849;BME280;38952;51.090;-1.832;2023-04-16T07:28:04;101316.25;;;10.67;73.81
51849;BME280;38952;51.090;-1.832;2023-04-16T07:30:43;101333.34;;;10.74;73.57
51849;BME280;38952;51.090;-1.832;2023-04-16T07:33:30;101299.28;;;10.64;72.88
51849;BME280;38952;51.090;-1.832;2023-04-16T07:39:07;101300.25;;;11.38;72.00
51849;BME280;38952;51.090;-1.832;2023-04-16T07:41:57;101339.41;;;11.73;71.37
51849;BME280;38952;51.090;-1.832;2023-04-16T07:44:35;101344.78;;;11.84;71.11
51849;BME280;38952;51.090;-1.832;2023-04-16T07:47:01;101337.03;;;11.98;70.29
51849;BME280;38952;51.090;-1.832;2023-04-16T07:49:26;101317.63;;;11.83;69.61
51849;BME280;38952;51.090;-1.832;2023-04-16T07:52:12;101339.22;;;11.96;69.05
51849;BME280;38952;51.090;-1.832;2023-04-16T07:54:40;101339.78;;;11.98;69.34
51849;BME280;38952;51.090;-1.832;2023-04-16T07:57:16;101337.13;;;12.03;68.66
51849;BME280;38952;51.090;-1.832;2023-04-16T07:59:41;101339.91;;;12.09;69.31
51849;BME280;38952;51.090;-1.832;2023-04-16T08:02:10;101330.19;;;12.18;68.69
51849;BME280;38952;51.090;-1.832;2023-04-16T08:04:37;101343.94;;;12.45;68.18
51849;BME280;38952;51.090;-1.832;2023-04-16T08:07:02;101332.50;;;12.53;67.96
51849;BME280;38952;51.090;-1.832;2023-04-16T08:09:28;101350.66;;;12.82;67.14
51849;BME280;38952;51.090;-1.832;2023-04-16T08:11:53;101352.31;;;12.83;67.22
51849;BME280;38952;51.090;-1.832;2023-04-16T08:14:19;101356.03;;;12.99;66.76
51849;BME280;38952;51.090;-1.832;2023-04-16T08:16:44;101357.19;;;13.03;66.28
51849;BME280;38952;51.090;-1.832;2023-04-16T08:19:10;101355.72;;;12.95;66.48
51849;BME280;38952;51.090;-1.832;2023-04-16T08:21:40;101341.44;;;12.93;66.36
51849;BME280;38952;51.090;-1.832;2023-04-16T08:24:13;101340.09;;;12.96;65.90
51849;BME280;38952;51.090;-1.832;2023-04-16T08:26:38;101339.88;;;13.02;66.17
51849;BME280;38952;51.090;-1.832;2023-04-16T08:29:04;101347.13;;;13.14;66.00
51849;BME280;38952;51.090;-1.832;2023-04-16T08:31:29;101348.16;;;13.35;65.62
51849;BME280;38952;51.090;-1.832;2023-04-16T08:33:59;101364.66;;;13.72;65.67
51849;BME280;38952;51.090;-1.832;2023-04-16T08:36:24;101326.81;;;13.90;64.93
51849;BME280;38952;51.090;-1.832;2023-04-16T08:38:49;101325.56;;;14.08;63.84
51849;BME280;38952;51.090;-1.832;2023-04-16T08:41:16;101312.66;;;14.19;63.01
51849;BME280;38952;51.090;-1.832;2023-04-16T08:43:44;101360.66;;;14.54;61.74
51849;BME280;38952;51.090;-1.832;2023-04-16T08:46:21;101314.38;;;14.35;61.84
51849;BME280;38952;51.090;-1.832;2023-04-16T08:48:58;101349.22;;;14.82;61.29
51849;BME280;38952;51.090;-1.832;2023-04-16T08:51:28;101326.91;;;14.74;61.46
51849;BME280;38952;51.090;-1.832;2023-04-16T08:54:04;101347.06;;;15.00;61.20
51849;BME280;38952;51.090;-1.832;2023-04-16T08:56:35;101368.53;;;15.08;60.79
51849;BME280;38952;51.090;-1.832;2023-04-16T08:59:01;101343.44;;;14.79;61.24
51849;BME280;38952;51.090;-1.832;2023-04-16T09:01:31;101347.53;;;14.71;61.06
51849;BME280;38952;51.090;-1.832;2023-04-16T09:26:06;101399.09;;;14.96;58.57
51849;BME280;38952;51.090;-1.832;2023-04-16T09:28:43;101395.47;;;14.80;59.16
51849;BME280;38952;51.090;-1.832;2023-04-16T09:44:57;101405.00;;;14.04;62.13
51849;BME280;38952;51.090;-1.832;2023-04-16T09:54:30;101387.31;;;13.90;62.21
51849;BME280;38952;51.090;-1.832;2023-04-16T09:57:25;101386.50;;;13.89;62.30
51849;BME280;38952;51.090;-1.832;2023-04-16T10:00:17;101382.97;;;13.99;61.97
51849;BME280;38952;51.090;-1.832;2023-04-16T10:03:12;101412.88;;;14.33;60.41
51849;BME280;38952;51.090;-1.832;2023-04-16T10:55:19;101394.25;;;16.62;50.94
51849;BME280;38952;51.090;-1.832;2023-04-16T10:58:30;101425.34;;;16.93;50.27
51849;BME280;38952;51.090;-1.832;2023-04-16T11:01:29;101414.03;;;16.84;50.81
51849;BME280;38952;51.090;-1.832;2023-04-16T11:43:57;101434.28;;;18.71;47.12
51849;BME280;38952;51.090;-1.832;2023-04-16T11:50:34;101433.00;;;18.63;47.35
51849;BME280;38952;51.090;-1.832;2023-04-16T12:00:18;101425.69;;;18.48;45.75
51849;BME280;38952;51.090;-1.832;2023-04-16T12:06:18;101439.78;;;18.52;41.93
51849;BME280;38952;51.090;-1.832;2023-04-16T12:09:22;101414.88;;;18.95;41.99
51849;BME280;38952;51.090;-1.832;2023-04-16T12:12:29;101415.09;;;19.89;39.13
51849;BME280;38952;51.090;-1.832;2023-04-16T12:15:21;101437.47;;;19.79;39.25
51849;BME280;38952;51.090;-1.832;2023-04-16T12:18:09;101393.13;;;20.07;40.16
51849;BME280;38952;51.090;-1.832;2023-04-16T12:20:57;101434.50;;;21.51;37.62
51849;BME280;38952;51.090;-1.832;2023-04-16T12:23:43;101403.50;;;21.97;36.43
51849;BME280;38952;51.090;-1.832;2023-04-16T12:26:08;101420.66;;;22.22;36.89
51849;BME280;38952;51.090;-1.832;2023-04-16T12:28:45;101405.28;;;21.39;36.85
51849;BME280;38952;51.090;-1.832;2023-04-16T12:31:40;101421.50;;;20.59;38.09
51849;BME280;38952;51.090;-1.832;2023-04-16T12:37:25;101387.31;;;19.23;40.30
51849;BME280;38952;51.090;-1.832;2023-04-16T12:39:54;101403.41;;;19.02;40.76
51849;BME280;38952;51.090;-1.832;2023-04-16T12:42:22;101422.31;;;19.52;40.96
51849;BME280;38952;51.090;-1.832;2023-04-16T12:44:51;101413.19;;;19.51;41.15
51849;BME280;38952;51.090;-1.832;2023-04-16T12:47:46;101403.66;;;19.25;40.91
51849;BME280;38952;51.090;-1.832;2023-04-16T12:50:14;101413.34;;;18.84;41.71
51849;BME280;38952;51.090;-1.832;2023-04-16T12:53:02;101418.44;;;18.77;42.52
51849;BME280;38952;51.090;-1.832;2023-04-16T12:55:40;101401.59;;;18.92;42.57
51849;BME280;38952;51.090;-1.832;2023-04-16T12:58:08;101432.94;;;18.93;41.90
51849;BME280;38952;51.090;-1.832;2023-04-16T13:00:33;101418.81;;;18.46;42.17
51849;BME280;38952;51.090;-1.832;2023-04-16T13:03:04;101425.31;;;18.07;42.93
51849;BME280;38952;51.090;-1.832;2023-04-16T13:05:42;101401.78;;;17.80;43.01
51849;BME280;38952;51.090;-1.832;2023-04-16T13:08:24;101395.97;;;17.76;43.82
51849;BME280;38952;51.090;-1.832;2023-04-16T13:14:03;101433.91;;;17.71;44.29
51849;BME280;38952;51.090;-1.832;2023-04-16T13:16:39;101408.44;;;17.74;44.19
51849;BME280;38952;51.090;-1.832;2023-04-16T13:19:09;101418.97;;;17.72;44.41
51849;BME280;38952;51.090;-1.832;2023-04-16T13:21:57;101378.38;;;17.33;44.66
51849;BME280;38952;51.090;-1.832;2023-04-16T13:24:43;101396.72;;;17.18;45.18
51849;BME280;38952;51.090;-1.832;2023-04-16T13:27:50;101421.31;;;17.20;45.80
51849;BME280;38952;51.090;-1.832;2023-04-16T13:30:21;101400.63;;;17.12;45.94
51849;BME280;38952;51.090;-1.832;2023-04-16T13:36:18;101398.91;;;17.21;46.62
51849;BME280;38952;51.090;-1.832;2023-04-16T13:38:56;101395.53;;;17.35;45.61
51849;BME280;38952;51.090;-1.832;2023-04-16T13:44:47;101401.69;;;17.90;44.13
51849;BME280;38952;51.090;-1.832;2023-04-16T13:47:23;101404.72;;;17.89;43.25
51849;BME280;38952;51.090;-1.832;2023-04-16T14:07:13;101368.84;;;17.49;42.22
51849;BME280;38952;51.090;-1.832;2023-04-16T14:09:50;101394.69;;;17.34;42.58
51849;BME280;38952;51.090;-1.832;2023-04-16T14:12:15;101405.41;;;17.41;42.97
51849;BME280;38952;51.090;-1.832;2023-04-16T14:14:41;101395.72;;;17.43;42.17
51849;BME280;38952;51.090;-1.832;2023-04-16T14:17:06;101390.81;;;17.35;42.17
51849;BME280;38952;51.090;-1.832;2023-04-16T14:19:40;101388.91;;;17.31;40.97
51849;BME280;38952;51.090;-1.832;2023-04-16T14:22:06;101415.31;;;17.82;40.69
51849;BME280;38952;51.090;-1.832;2023-04-16T14:24:33;101414.28;;;18.02;40.38
51849;BME280;38952;51.090;-1.832;2023-04-16T14:26:59;101396.16;;;17.90;40.63
51849;BME280;38952;51.090;-1.832;2023-04-16T14:53:31;101362.47;;;15.88;41.03
51849;BME280;38952;51.090;-1.832;2023-04-16T15:06:47;101387.75;;;16.32;42.16
51849;BME280;38952;51.090;-1.832;2023-04-16T15:09:24;101380.00;;;16.44;41.62
51849;BME280;38952;51.090;-1.832;2023-04-16T15:29:11;101344.16;;;16.23;41.90
51849;BME280;38952;51.090;-1.832;2023-04-16T15:32:29;101367.72;;;16.66;42.15
51849;BME280;38952;51.090;-1.832;2023-04-16T15:35:25;101342.63;;;16.62;41.64
51849;BME280;38952;51.090;-1.832;2023-04-16T15:41:32;101337.06;;;16.67;41.31
51849;BME280;38952;51.090;-1.832;2023-04-16T15:44:18;101318.66;;;16.52;41.77
51849;BME280;38952;51.090;-1.832;2023-04-16T15:46:59;101363.22;;;16.85;41.60
51849;BME280;38952;51.090;-1.832;2023-04-16T15:49:50;101321.22;;;16.33;41.84
51849;BME280;38952;51.090;-1.832;2023-04-16T15:52:35;101335.06;;;16.23;41.91
51849;BME280;38952;51.090;-1.832;2023-04-16T15:55:05;101364.56;;;16.28;42.27
51849;BME280;38952;51.090;-1.832;2023-04-16T15:57:31;101347.03;;;15.98;43.20
51849;BME280;38952;51.090;-1.832;2023-04-16T15:59:56;101354.47;;;16.02;42.95
51849;BME280;38952;51.090;-1.832;2023-04-16T16:02:22;101357.47;;;16.06;43.20
51849;BME280;38952;51.090;-1.832;2023-04-16T16:04:47;101339.34;;;15.79;42.37
51849;BME280;38952;51.090;-1.832;2023-04-16T16:15:01;101354.78;;;15.44;44.49
51849;BME280;38952;51.090;-1.832;2023-04-16T16:21:22;101326.13;;;15.50;44.13
51849;BME280;38952;51.090;-1.832;2023-04-16T16:23:55;101327.78;;;15.46;44.21
51849;BME280;38952;51.090;-1.832;2023-04-16T16:26:20;101352.56;;;15.67;44.01
51849;BME280;38952;51.090;-1.832;2023-04-16T16:28:47;101347.91;;;15.57;43.72
51849;BME280;38952;51.090;-1.832;2023-04-16T16:31:12;101350.63;;;15.62;43.81
51849;BME280;38952;51.090;-1.832;2023-04-16T16:33:38;101362.50;;;15.63;44.39
51849;BME280;38952;51.090;-1.832;2023-04-16T16:36:03;101350.94;;;15.45;44.56
51849;BME280;38952;51.090;-1.832;2023-04-16T16:38:36;101363.63;;;15.57;44.42
51849;BME280;38952;51.090;-1.832;2023-04-16T16:41:04;101350.94;;;15.45;44.86
51849;BME280;38952;51.090;-1.832;2023-04-16T16:43:34;101342.66;;;15.45;44.84
51849;BME280;38952;51.090;-1.832;2023-04-16T16:46:02;101317.56;;;15.52;44.46
51849;BME280;38952;51.090;-1.832;2023-04-16T16:48:41;101341.81;;;15.70;44.17
51849;BME280;38952;51.090;-1.832;2023-04-16T16:51:12;101357.53;;;15.70;43.79
51849;BME280;38952;51.090;-1.832;2023-04-16T16:53:45;101351.47;;;15.58;44.42
51849;BME280;38952;51.090;-1.832;2023-04-16T16:56:10;101344.31;;;15.41;45.14
51849;BME280;38952;51.090;-1.832;2023-04-16T16:58:36;101329.72;;;15.30;45.36
51849;BME280;38952;51.090;-1.832;2023-04-16T17:01:01;101323.94;;;15.16;46.05
51849;BME280;38952;51.090;-1.832;2023-04-16T17:03:29;101324.75;;;15.22;46.46
51849;BME280;38952;51.090;-1.832;2023-04-16T17:05:55;101333.84;;;15.17;46.21
51849;BME280;38952;51.090;-1.832;2023-04-16T17:08:29;101345.44;;;15.25;47.05
51849;BME280;38952;51.090;-1.832;2023-04-16T17:11:15;101340.47;;;15.32;47.17
51849;BME280;38952;51.090;-1.832;2023-04-16T17:13:54;101330.78;;;15.45;46.75
51849;BME280;38952;51.090;-1.832;2023-04-16T17:16:29;101331.63;;;15.30;47.27
51849;BME280;38952;51.090;-1.832;2023-04-16T17:18:57;101299.13;;;14.96;46.87
51849;BME280;38952;51.090;-1.832;2023-04-16T17:21:25;101335.47;;;15.08;45.54
51849;BME280;38952;51.090;-1.832;2023-04-16T17:23:54;101304.59;;;14.70;45.23
51849;BME280;38952;51.090;-1.832;2023-04-16T17:26:22;101361.88;;;14.78;46.40